createdAt,value
2022-09-25T00:01:16.157Z,7.72
2022-09-25T00:03:43.982Z,7.97
2022-09-25T00:06:15.272Z,6.97
2022-09-25T00:08:42.804Z,5.30
2022-09-25T00:11:13.370Z,7.45
2022-09-25T00:13:41.633Z,7.55
2022-09-25T00:16:14.432Z,7.90
2022-09-25T00:19:00.570Z,7.68
2022-09-25T00:21:30.493Z,6.82
2022-09-25T00:24:03.636Z,6.70
2022-09-25T00:26:33.579Z,7.00
2022-09-25T00:29:01.554Z,8.00
2022-09-25T00:31:29.868Z,5.55
2022-09-25T00:33:59.497Z,5.25
2022-09-25T00:36:27.626Z,6.37
2022-09-25T00:38:55.074Z,6.78
2022-09-25T00:41:25.856Z,6.65
2022-09-25T00:43:56.389Z,6.57
2022-09-25T00:46:30.745Z,6.82
2022-09-25T00:49:11.154Z,4.78
2022-09-25T00:51:54.812Z,4.95
2022-09-25T00:54:27.455Z,6.50
2022-09-25T00:56:56.723Z,6.05
2022-09-25T00:59:31.385Z,5.07
2022-09-25T01:01:59.449Z,6.80
2022-09-25T01:04:29.424Z,6.53
2022-09-25T01:06:57.473Z,6.68
2022-09-25T01:09:25.082Z,6.40
2022-09-25T01:11:53.464Z,5.43
2022-09-25T01:14:20.904Z,5.30
2022-09-25T01:17:02.808Z,6.07
2022-09-25T01:19:50.149Z,6.50
2022-09-25T01:22:30.776Z,6.07
2022-09-25T01:25:12.004Z,6.90
2022-09-25T01:28:05.625Z,5.85
2022-09-25T01:30:37.976Z,6.37
2022-09-25T01:33:19.944Z,6.80
2022-09-25T01:36:02.699Z,6.70
2022-09-25T01:38:33.558Z,7.45
2022-09-25T01:41:32.778Z,6.80
2022-09-25T01:44:03.546Z,6.22
2022-09-25T01:46:36.258Z,6.68
2022-09-25T01:49:08.629Z,6.20
2022-09-25T01:51:39.439Z,5.85
2022-09-25T01:54:12.759Z,7.22
2022-09-25T01:56:50.060Z,5.60
2022-09-25T01:59:26.115Z,6.68
2022-09-25T02:01:55.088Z,7.55
2022-09-25T02:04:32.606Z,6.57
2022-09-25T02:07:04.747Z,5.20
2022-09-25T02:09:43.782Z,5.50
2022-09-25T02:12:18.051Z,7.47
2022-09-25T02:14:49.989Z,6.55
2022-09-25T02:17:43.069Z,7.82
2022-09-25T02:20:29.336Z,7.43
2022-09-25T02:23:01.169Z,5.95
2022-09-25T02:25:44.067Z,7.22
2022-09-25T02:28:11.555Z,6.40
2022-09-25T02:30:39.317Z,5.32
2022-09-25T02:33:06.781Z,5.78
2022-09-25T02:35:34.228Z,6.57
2022-09-25T02:38:02.949Z,6.82
2022-09-25T02:40:44.282Z,6.57
2022-09-25T02:43:28.055Z,6.43
2022-09-25T02:46:23.266Z,6.55
2022-09-25T02:49:06.715Z,5.70
2022-09-25T02:51:47.961Z,6.35
2022-09-25T02:54:21.490Z,7.00
2022-09-25T02:57:33.832Z,7.03
2022-09-25T03:00:05.566Z,5.07
2022-09-25T03:02:34.863Z,5.28
2022-09-25T03:05:04.046Z,5.95
2022-09-25T03:07:52.095Z,6.40
2022-09-25T03:10:19.976Z,6.37
2022-09-25T03:12:47.459Z,6.35
2022-09-25T03:15:14.890Z,6.62
2022-09-25T03:17:43.633Z,7.25
2022-09-25T03:20:11.117Z,6.22
2022-09-25T03:22:38.561Z,5.40
2022-09-25T03:25:06.538Z,7.00
2022-09-25T03:27:33.985Z,6.07
2022-09-25T03:30:02.471Z,6.95
2022-09-25T03:32:30.184Z,6.85
2022-09-25T03:34:57.748Z,4.25
2022-09-25T03:37:25.451Z,6.80
2022-09-25T03:39:53.163Z,4.80
2022-09-25T03:42:20.646Z,6.07
2022-09-25T03:44:48.069Z,5.43
2022-09-25T03:47:15.774Z,4.55
2022-09-25T03:49:43.177Z,6.90
2022-09-25T03:52:12.892Z,6.47
2022-09-25T03:54:41.197Z,7.03
2022-09-25T03:57:08.651Z,6.55
2022-09-25T03:59:36.085Z,6.40
2022-09-25T04:02:03.798Z,6.22
2022-09-25T04:04:32.219Z,5.93
2022-09-25T04:06:59.656Z,6.40
2022-09-25T04:09:27.069Z,6.37
2022-09-25T04:11:56.281Z,4.93
2022-09-25T04:14:24.104Z,5.95
2022-09-25T04:16:52.061Z,8.43
2022-09-25T04:19:19.849Z,8.15
2022-09-25T04:21:47.607Z,10.43
2022-09-25T04:24:33.694Z,10.45
2022-09-25T04:27:01.563Z,9.32
2022-09-25T04:29:29.137Z,9.02
2022-09-25T04:32:14.967Z,9.57
2022-09-25T04:34:42.853Z,8.38
2022-09-25T04:37:10.595Z,8.48
2022-09-25T04:39:38.031Z,8.15
2022-09-25T04:42:06.301Z,6.82
2022-09-25T04:44:33.770Z,6.30
2022-09-25T04:47:01.169Z,6.82
2022-09-25T04:49:29.295Z,7.05
2022-09-25T04:51:57.009Z,4.70
2022-09-25T04:54:24.452Z,5.95
2022-09-25T04:56:52.468Z,6.50
2022-09-25T04:59:19.888Z,6.10
2022-09-25T05:01:47.950Z,6.28
2022-09-25T05:04:16.273Z,5.80
2022-09-25T05:06:43.847Z,7.82
2022-09-25T05:09:11.303Z,7.90
2022-09-25T05:11:39.121Z,7.62
2022-09-25T05:14:06.985Z,7.22
2022-09-25T05:16:34.654Z,7.18
2022-09-25T05:19:02.418Z,7.10
2022-09-25T05:21:29.894Z,6.75
2022-09-25T05:23:57.326Z,7.82
2022-09-25T05:26:25.651Z,8.35
2022-09-25T05:28:53.166Z,6.82
2022-09-25T05:31:20.761Z,8.25
2022-09-25T05:33:48.956Z,9.27
2022-09-25T05:36:18.851Z,8.82
2022-09-25T05:38:46.634Z,8.80
2022-09-25T05:41:14.364Z,9.50
2022-09-25T05:43:44.062Z,8.60
2022-09-25T05:46:11.892Z,9.13
2022-09-25T05:48:39.952Z,9.35
2022-09-25T05:51:07.471Z,9.15
2022-09-25T05:53:34.993Z,10.20
2022-09-25T05:56:03.880Z,10.23
2022-09-25T05:58:33.610Z,9.88
2022-09-25T06:01:05.106Z,10.57
2022-09-25T06:03:33.081Z,10.93
2022-09-25T06:06:00.642Z,12.02
2022-09-25T06:08:31.620Z,11.90
2022-09-25T06:11:00.821Z,10.63
2022-09-25T06:13:30.183Z,10.98
2022-09-25T06:15:57.720Z,10.48
2022-09-25T06:18:26.072Z,11.05
2022-09-25T06:21:02.977Z,10.45
2022-09-25T06:23:30.984Z,9.75
2022-09-25T06:26:05.948Z,10.35
2022-09-25T06:31:03.792Z,9.90
2022-09-25T06:33:32.075Z,11.50
2022-09-25T06:36:00.848Z,10.35
2022-09-25T06:38:28.800Z,8.75
2022-09-25T06:41:00.091Z,10.73
2022-09-25T06:43:28.546Z,11.38
2022-09-25T06:45:59.760Z,11.25
2022-09-25T06:48:27.235Z,11.00
2022-09-25T06:50:56.543Z,9.98
2022-09-25T06:53:25.353Z,11.73
2022-09-25T06:55:55.971Z,10.57
2022-09-25T06:58:24.214Z,9.52
2022-09-25T07:00:53.512Z,10.10
2022-09-25T07:03:40.377Z,10.57
2022-09-25T07:06:09.942Z,11.10
2022-09-25T07:08:37.573Z,12.80
2022-09-25T07:11:05.454Z,12.48
2022-09-25T07:13:35.052Z,13.98
2022-09-25T07:16:07.008Z,18.55
2022-09-25T07:18:34.944Z,13.45
2022-09-25T07:21:05.189Z,11.57
2022-09-25T07:23:33.798Z,11.75
2022-09-25T07:26:09.849Z,11.40
2022-09-25T07:28:38.432Z,12.88
2022-09-25T07:31:20.499Z,11.50
2022-09-25T07:33:48.418Z,11.27
2022-09-25T07:36:17.158Z,13.02
2022-09-25T07:38:46.197Z,13.55
2022-09-25T07:41:13.784Z,12.60
2022-09-25T07:43:44.375Z,8.98
2022-09-25T07:46:12.510Z,5.22
2022-09-25T07:48:40.090Z,5.00
2022-09-25T07:51:11.359Z,4.93
2022-09-25T07:53:39.383Z,4.53
2022-09-25T07:56:07.464Z,4.25
2022-09-25T07:58:35.847Z,4.55
2022-09-25T08:01:05.715Z,4.00
2022-09-25T08:03:33.836Z,4.90
2022-09-25T08:06:03.283Z,5.00
2022-09-25T08:08:30.842Z,4.75
2022-09-25T08:11:03.178Z,4.72
2022-09-25T08:13:32.422Z,4.90
2022-09-25T08:16:07.344Z,3.85
2022-09-25T08:18:34.875Z,4.28
2022-09-25T08:21:03.493Z,4.15
2022-09-25T08:23:31.838Z,4.55
2022-09-25T08:25:59.794Z,4.10
2022-09-25T08:28:28.307Z,6.37
2022-09-25T08:30:58.963Z,5.95
2022-09-25T08:33:27.010Z,8.23
2022-09-25T08:35:59.363Z,9.23
2022-09-25T08:38:27.602Z,7.80
2022-09-25T08:40:59.505Z,6.28
2022-09-25T08:43:28.424Z,7.12
2022-09-25T08:46:17.345Z,5.65
2022-09-25T08:49:02.219Z,2.78
2022-09-25T08:51:30.925Z,3.53
2022-09-25T08:53:59.746Z,4.32
2022-09-25T08:56:28.687Z,3.65
2022-09-25T08:59:15.301Z,3.45
2022-09-25T09:01:52.279Z,2.75
2022-09-25T09:04:24.460Z,3.05
2022-09-25T09:07:25.285Z,2.20
2022-09-25T09:12:21.397Z,2.95
2022-09-25T09:14:51.782Z,2.85
2022-09-25T09:17:22.172Z,2.80
2022-09-25T09:20:00.490Z,2.80
2022-09-25T09:22:37.890Z,2.40
2022-09-25T09:25:09.311Z,2.75
2022-09-25T09:27:37.009Z,2.70
2022-09-25T09:30:17.742Z,2.80
2022-09-25T09:33:09.612Z,2.70
2022-09-25T09:35:36.949Z,3.25
2022-09-25T09:38:26.244Z,3.22
2022-09-25T09:41:13.044Z,3.15
2022-09-25T09:43:40.688Z,2.47
2022-09-25T09:46:18.995Z,2.75
2022-09-25T09:49:14.874Z,2.40
2022-09-25T09:51:47.893Z,3.03
2022-09-25T09:54:22.475Z,2.40
2022-09-25T09:56:51.696Z,3.33
2022-09-25T09:59:23.267Z,3.25
2022-09-25T10:01:59.850Z,3.12
2022-09-25T10:04:32.017Z,3.20
2022-09-25T10:07:04.785Z,2.90
2022-09-25T10:09:32.691Z,2.97
2022-09-25T10:12:08.269Z,2.87
2022-09-25T10:14:42.512Z,3.47
2022-09-25T10:17:13.453Z,3.35
2022-09-25T10:19:55.654Z,3.22
2022-09-25T10:22:28.128Z,3.70
2022-09-25T10:25:01.782Z,3.78
2022-09-25T10:27:36.521Z,3.62
2022-09-25T10:30:10.358Z,3.87
2022-09-25T10:32:51.280Z,3.65
2022-09-25T10:35:37.006Z,3.80
2022-09-25T10:38:14.931Z,3.53
2022-09-25T10:40:46.635Z,4.20
2022-09-25T10:43:20.613Z,3.53
2022-09-25T10:45:49.282Z,3.15
2022-09-25T10:48:46.517Z,3.22
2022-09-25T10:51:17.432Z,3.03
2022-09-25T10:53:46.161Z,2.80
2022-09-25T10:56:36.020Z,3.28
2022-09-25T10:59:03.942Z,2.72
2022-09-25T11:01:38.491Z,2.55
2022-09-25T11:04:25.194Z,3.20
2022-09-25T11:07:04.930Z,3.12
2022-09-25T11:09:33.766Z,3.20
2022-09-25T11:12:14.518Z,3.05
2022-09-25T11:15:03.188Z,2.90
2022-09-25T11:17:42.431Z,2.55
2022-09-25T11:20:19.106Z,2.42
2022-09-25T11:23:18.833Z,2.67
2022-09-25T11:25:57.187Z,2.50
2022-09-25T11:28:35.401Z,2.80
2022-09-25T11:31:26.794Z,2.53
2022-09-25T11:34:43.067Z,2.50
2022-09-25T11:37:26.065Z,3.50
2022-09-25T11:40:15.433Z,2.72
2022-09-25T11:42:48.674Z,2.53
2022-09-25T11:45:23.289Z,2.40
2022-09-25T11:47:55.171Z,2.70
2022-09-25T11:50:34.736Z,2.75
2022-09-25T11:53:27.706Z,2.85
2022-09-25T11:56:15.268Z,3.22
2022-09-25T11:58:49.259Z,3.00
2022-09-25T12:01:32.686Z,3.40
2022-09-25T12:04:25.354Z,2.17
2022-09-25T12:06:53.314Z,3.45
2022-09-25T12:09:50.160Z,2.37
2022-09-25T12:12:32.908Z,4.45
2022-09-25T12:15:00.481Z,3.97
2022-09-25T12:18:05.113Z,4.72
2022-09-25T12:20:48.161Z,5.75
2022-09-25T12:23:30.155Z,9.05
2022-09-25T12:26:06.909Z,5.85
2022-09-25T12:28:58.607Z,5.15
2022-09-25T12:31:35.054Z,5.10
2022-09-25T12:34:19.612Z,5.75
2022-09-25T12:37:08.031Z,5.32
2022-09-25T12:39:41.282Z,6.87
2022-09-25T12:42:17.519Z,7.15
2022-09-25T12:45:00.474Z,6.40
2022-09-25T12:47:43.084Z,5.95
2022-09-25T12:50:14.782Z,6.62
2022-09-25T12:52:53.646Z,19.55
2022-09-25T12:55:26.101Z,7.95
2022-09-25T12:58:34.437Z,6.10
2022-09-25T13:01:25.674Z,5.60
2022-09-25T13:04:26.345Z,5.45
2022-09-25T13:07:10.185Z,5.93
2022-09-25T13:09:46.560Z,5.35
2022-09-25T13:12:29.226Z,5.82
2022-09-25T13:15:04.958Z,6.07
2022-09-25T13:17:32.503Z,5.80
2022-09-25T13:20:28.581Z,5.72
2022-09-25T13:23:01.789Z,5.30
2022-09-25T13:25:30.338Z,6.62
2022-09-25T13:28:06.111Z,6.18
2022-09-25T13:30:34.026Z,9.30
2022-09-25T13:33:03.284Z,9.30
2022-09-25T13:35:32.466Z,9.95
2022-09-25T13:38:39.174Z,8.05
2022-09-25T13:43:38.526Z,13.85
2022-09-25T13:46:20.003Z,99.22
2022-09-25T13:48:48.419Z,46.37
2022-09-25T13:51:22.484Z,33.53
2022-09-25T13:54:25.759Z,11.30
2022-09-25T13:56:54.275Z,9.60
2022-09-25T13:59:24.583Z,17.42
2022-09-25T14:01:56.453Z,18.30
2022-09-25T14:04:30.890Z,12.20
2022-09-25T14:07:28.887Z,8.35
2022-09-25T14:09:58.053Z,7.50
2022-09-25T14:12:42.578Z,6.78
2022-09-25T14:15:24.392Z,6.93
2022-09-25T14:17:53.279Z,6.82
2022-09-25T14:20:32.148Z,7.80
2022-09-25T14:23:03.305Z,7.80
2022-09-25T14:25:33.933Z,9.30
2022-09-25T14:28:02.624Z,10.55
2022-09-25T14:30:31.002Z,10.50
2022-09-25T14:33:32.858Z,10.23
2022-09-25T14:36:22.308Z,8.38
2022-09-25T14:38:52.946Z,9.02
2022-09-25T14:41:35.236Z,8.82
2022-09-25T14:44:18.401Z,9.80
2022-09-25T14:46:49.683Z,9.43
2022-09-25T14:49:24.598Z,6.72
2022-09-25T14:51:54.836Z,7.32
2022-09-25T14:54:24.456Z,8.68
2022-09-25T14:56:55.610Z,8.98
2022-09-25T14:59:42.656Z,9.05
2022-09-25T15:02:19.924Z,10.93
2022-09-25T15:04:47.719Z,10.23
2022-09-25T15:07:20.838Z,11.55
2022-09-25T15:09:49.623Z,11.05
2022-09-25T15:12:26.042Z,11.23
2022-09-25T15:15:17.294Z,9.95
2022-09-25T15:17:57.973Z,9.95
2022-09-25T15:20:33.680Z,11.60
2022-09-25T15:23:03.747Z,12.27
2022-09-25T15:25:40.102Z,11.32
2022-09-25T15:28:08.909Z,11.55
2022-09-25T15:30:37.813Z,9.00
2022-09-25T15:33:06.333Z,8.48
2022-09-25T15:35:33.895Z,8.55
2022-09-25T15:38:28.315Z,9.90
2022-09-25T15:41:01.667Z,9.95
2022-09-25T15:43:32.190Z,7.90
2022-09-25T15:46:09.036Z,8.60
2022-09-25T15:48:39.582Z,9.82
2022-09-25T15:51:18.026Z,10.63
2022-09-25T15:53:57.642Z,10.57
2022-09-25T15:56:30.208Z,10.82
2022-09-25T15:59:25.320Z,11.30
2022-09-25T16:02:11.535Z,10.82
2022-09-25T16:04:52.113Z,12.35
2022-09-25T16:07:32.091Z,12.60
2022-09-25T16:10:10.434Z,12.40
2022-09-25T16:12:47.885Z,13.43
2022-09-25T16:15:27.877Z,12.00
2022-09-25T16:18:05.170Z,10.07
2022-09-25T16:20:37.059Z,10.40
2022-09-25T16:23:07.627Z,10.13
2022-09-25T16:25:37.888Z,8.00
2022-09-25T16:28:07.172Z,8.43
2022-09-25T16:30:35.270Z,11.27
2022-09-25T16:33:19.864Z,9.75
2022-09-25T16:36:09.345Z,9.55
2022-09-25T16:38:38.422Z,6.78
2022-09-25T16:41:19.111Z,9.07
2022-09-25T16:43:47.543Z,16.05
2022-09-25T16:46:20.495Z,24.87
2022-09-25T16:49:01.851Z,23.12
2022-09-25T16:51:32.889Z,25.08
2022-09-25T16:54:01.435Z,26.67
2022-09-25T16:56:31.509Z,29.05
2022-09-25T16:58:59.360Z,31.65
2022-09-25T17:01:27.991Z,26.85
2022-09-25T17:03:59.867Z,24.45
2022-09-25T17:06:31.326Z,22.77
2022-09-25T17:09:00.143Z,24.63
2022-09-25T17:11:27.658Z,25.73
2022-09-25T17:13:56.258Z,23.15
2022-09-25T17:16:24.112Z,20.80
2022-09-25T17:18:51.597Z,20.42
2022-09-25T17:21:20.146Z,15.50
2022-09-25T17:23:47.952Z,16.75
2022-09-25T17:26:19.112Z,17.23
2022-09-25T17:28:47.232Z,16.85
2022-09-25T17:31:20.716Z,18.17
2022-09-25T17:33:50.234Z,15.40
2022-09-25T17:36:18.271Z,11.15
2022-09-25T17:38:45.766Z,10.40
2022-09-25T17:41:31.311Z,12.37
2022-09-25T17:43:59.130Z,14.15
2022-09-25T17:46:26.836Z,13.48
2022-09-25T17:48:55.000Z,15.35
2022-09-25T17:51:25.083Z,13.57
2022-09-25T17:53:53.920Z,14.27
2022-09-25T17:56:22.009Z,14.95
2022-09-25T17:58:51.205Z,14.43
2022-09-25T18:01:23.751Z,15.88
2022-09-25T18:04:00.273Z,16.27
2022-09-25T18:06:29.773Z,18.25
2022-09-25T18:08:57.574Z,18.67
2022-09-25T18:11:25.756Z,18.58
2022-09-25T18:13:54.378Z,16.00
2022-09-25T18:16:27.169Z,17.65
2022-09-25T18:19:13.477Z,17.48
2022-09-25T18:21:59.959Z,19.95
2022-09-25T18:24:28.210Z,18.15
2022-09-25T18:26:57.105Z,17.83
2022-09-25T18:29:24.919Z,17.67
2022-09-25T18:31:52.647Z,17.58
2022-09-25T18:34:21.828Z,17.25
2022-09-25T18:36:51.070Z,14.30
2022-09-25T18:39:20.307Z,16.92
2022-09-25T18:41:48.589Z,16.23
2022-09-25T18:44:17.910Z,15.20
2022-09-25T18:46:45.577Z,16.58
2022-09-25T18:49:14.276Z,16.35
2022-09-25T18:51:43.203Z,17.52
2022-09-25T18:54:14.072Z,17.77
2022-09-25T18:56:43.443Z,14.38
2022-09-25T18:59:12.352Z,16.70
2022-09-25T19:01:41.392Z,15.30
2022-09-25T19:04:15.996Z,15.68
2022-09-25T19:06:44.096Z,15.32
2022-09-25T19:09:16.323Z,15.60
2022-09-25T19:11:44.563Z,15.48
2022-09-25T19:14:13.147Z,15.70
2022-09-25T19:16:40.758Z,15.95
2022-09-25T19:19:08.373Z,15.95
2022-09-25T19:21:36.293Z,16.52
2022-09-25T19:24:04.654Z,16.60
2022-09-25T19:26:35.179Z,15.88
2022-09-25T19:29:05.189Z,17.60
2022-09-25T19:31:32.998Z,16.45
2022-09-25T19:34:02.813Z,16.67
2022-09-25T19:36:32.537Z,16.62
2022-09-25T19:39:00.989Z,15.93
2022-09-25T19:41:34.097Z,16.02
2022-09-25T19:44:11.214Z,16.35
2022-09-25T19:46:44.302Z,15.57
2022-09-25T19:49:14.054Z,16.12
2022-09-25T19:51:42.273Z,15.10
2022-09-25T19:54:12.358Z,14.87
2022-09-25T19:56:41.948Z,17.20
2022-09-25T19:59:13.818Z,13.27
2022-09-25T20:01:43.189Z,14.05
2022-09-25T20:04:17.181Z,13.20
2022-09-25T20:06:46.470Z,13.43
2022-09-25T20:09:14.540Z,15.85
2022-09-25T20:11:43.338Z,16.08
2022-09-25T20:14:11.312Z,16.08
2022-09-25T20:16:39.142Z,15.70
2022-09-25T20:19:07.308Z,15.13
2022-09-25T20:21:37.186Z,15.57
2022-09-25T20:24:07.320Z,15.40
2022-09-25T20:26:36.443Z,15.18
2022-09-25T20:29:09.726Z,15.13
2022-09-25T20:31:39.298Z,15.32
2022-09-25T20:34:06.881Z,16.55
2022-09-25T20:36:36.314Z,16.00
2022-09-25T20:39:04.647Z,16.12
2022-09-25T20:41:33.289Z,16.60
2022-09-25T20:44:00.830Z,14.10
2022-09-25T20:46:29.995Z,15.07
2022-09-25T20:48:58.658Z,14.38
2022-09-25T20:51:32.874Z,14.60
2022-09-25T20:54:06.741Z,12.82
2022-09-25T20:56:35.607Z,15.40
2022-09-25T20:59:04.760Z,15.45
2022-09-25T21:01:34.769Z,15.95
2022-09-25T21:04:04.829Z,10.25
2022-09-25T21:06:33.674Z,14.32
2022-09-25T21:09:03.769Z,13.25
2022-09-25T21:11:32.313Z,15.48
2022-09-25T21:14:02.639Z,14.27
2022-09-25T21:16:31.263Z,15.40
2022-09-25T21:19:01.140Z,16.02
2022-09-25T21:21:29.713Z,14.50
2022-09-25T21:23:58.001Z,13.32
2022-09-25T21:26:27.607Z,13.65
2022-09-25T21:28:56.631Z,12.60
2022-09-25T21:31:27.870Z,10.30
2022-09-25T21:33:57.009Z,14.87
2022-09-25T21:36:26.434Z,15.45
2022-09-25T21:38:54.015Z,12.27
2022-09-25T21:41:23.788Z,14.23
2022-09-25T21:43:59.105Z,15.32
2022-09-25T21:46:27.958Z,16.12
2022-09-25T21:48:57.736Z,16.45
2022-09-25T21:51:28.043Z,12.65
2022-09-25T21:53:56.202Z,15.05
2022-09-25T21:56:25.639Z,14.57
2022-09-25T21:58:55.072Z,14.80
2022-09-25T22:01:26.011Z,14.43
2022-09-25T22:03:55.806Z,15.85
2022-09-25T22:06:26.394Z,14.43
2022-09-25T22:08:56.596Z,13.93
2022-09-25T22:11:24.124Z,14.93
2022-09-25T22:13:51.901Z,14.25
2022-09-25T22:16:22.025Z,13.60
2022-09-25T22:19:14.267Z,15.10
2022-09-25T22:21:43.241Z,15.43
2022-09-25T22:24:11.376Z,12.73
2022-09-25T22:26:40.983Z,16.05
2022-09-25T22:29:09.421Z,14.90
2022-09-25T22:31:38.549Z,17.02
2022-09-25T22:34:08.426Z,15.52
2022-09-25T22:36:36.390Z,14.95
2022-09-25T22:39:05.214Z,16.83
2022-09-25T22:41:33.168Z,17.75
2022-09-25T22:44:01.549Z,16.75
2022-09-25T22:46:29.415Z,18.92
2022-09-25T22:48:56.964Z,17.95
2022-09-25T22:51:25.950Z,14.27
2022-09-25T22:53:54.347Z,15.52
2022-09-25T22:56:27.942Z,16.65
2022-09-25T22:58:58.126Z,11.40
2022-09-25T23:01:27.447Z,14.60
2022-09-25T23:03:57.236Z,16.45
2022-09-25T23:06:27.391Z,18.52
2022-09-25T23:08:58.041Z,17.80
2022-09-25T23:11:27.395Z,15.80
2022-09-25T23:14:17.330Z,16.10
2022-09-25T23:16:48.361Z,15.55
2022-09-25T23:19:17.421Z,14.80
2022-09-25T23:21:46.329Z,15.38
2022-09-25T23:24:16.360Z,16.02
2022-09-25T23:26:44.358Z,18.83
2022-09-25T23:29:13.780Z,16.23
2022-09-25T23:31:42.343Z,12.30
2022-09-25T23:34:10.318Z,16.55
2022-09-25T23:36:38.452Z,17.35
2022-09-25T23:39:06.857Z,16.35
2022-09-25T23:41:36.542Z,14.02
2022-09-25T23:44:07.053Z,12.35
2022-09-25T23:46:36.567Z,12.50
2022-09-25T23:49:05.308Z,13.38
2022-09-25T23:51:33.464Z,16.10
2022-09-25T23:54:01.787Z,15.15
2022-09-25T23:56:31.854Z,13.13
2022-09-25T23:59:01.234Z,12.95
